Time;durP1;ratioP1;P1;durP2;ratioP2;P2;SDS_P1;SDS_P2;PMS_P1;PMS_P2;Temp;Humidity;BMP_temperature;BMP_pressure;BME280_temperature;BME280_humidity;BME280_pressure;Samples;Min_cycle;Max_cycle;Signal;HPM_P1;HPM_P2
2022/09/19 00:00:43;;;;;;;21.33;2.42;;;11.40;99.90;;;;;;4949312;28;193764;-72
2022/09/19 00:03:10;;;;;;;16.73;1.85;;;11.40;99.90;;;;;;4986906;28;20061;-72
2022/09/19 00:05:40;;;;;;;16.52;2.15;;;11.40;99.90;;;;;;4930761;28;205257;-73
2022/09/19 00:08:07;;;;;;;19.50;2.63;;;11.40;99.90;;;;;;4980644;28;20058;-73
2022/09/19 00:10:42;;;;;;;15.95;1.98;;;11.30;99.90;;;;;;4924587;28;208977;-72
2022/09/19 00:13:09;;;;;;;29.63;2.33;;;11.40;99.90;;;;;;4983181;28;20059;-75
2022/09/19 00:15:45;;;;;;;23.80;2.55;;;11.30;99.90;;;;;;4949683;28;207499;-74
2022/09/19 00:18:11;;;;;;;25.27;2.47;;;11.40;99.90;;;;;;4982059;28;20416;-74
2022/09/19 00:20:43;;;;;;;22.52;2.30;;;11.40;99.90;;;;;;4942810;28;149913;-74
2022/09/19 00:26:01;;;;;;;38.80;2.70;;;11.40;99.90;;;;;;4919637;28;223132;-73
2022/09/19 00:28:28;;;;;;;29.23;2.60;;;11.40;99.90;;;;;;4976240;28;20066;-74
2022/09/19 00:30:55;;;;;;;20.35;2.58;;;11.40;99.90;;;;;;4920476;28;211605;-75
2022/09/19 00:33:30;;;;;;;19.67;2.40;;;11.40;99.90;;;;;;4980907;28;20054;-74
2022/09/19 00:36:03;;;;;;;21.75;3.00;;;11.40;99.90;;;;;;4943214;28;219859;-74
2022/09/19 00:38:31;;;;;;;21.50;2.05;;;11.50;99.90;;;;;;4982423;28;20065;-74
2022/09/19 00:40:57;;;;;;;29.52;2.75;;;11.50;99.90;;;;;;4942754;28;205898;-74
2022/09/19 00:43:42;;;;;;;24.45;3.25;;;11.40;99.90;;;;;;4985694;28;20369;-74
2022/09/19 00:46:08;;;;;;;21.75;2.33;;;11.40;99.90;;;;;;4920405;28;183170;-73
2022/09/19 00:48:34;;;;;;;24.38;2.72;;;11.40;99.90;;;;;;4982639;28;20820;-72
2022/09/19 00:51:02;;;;;;;23.58;2.75;;;11.40;99.90;;;;;;4950156;28;212630;-73
2022/09/19 00:53:31;;;;;;;19.35;2.45;;;11.40;99.90;;;;;;4985019;28;20057;-72
2022/09/19 00:55:57;;;;;;;21.38;2.35;;;11.40;99.90;;;;;;4938954;28;209649;-72
2022/09/19 00:58:27;;;;;;;25.20;3.13;;;11.40;99.90;;;;;;4982318;28;20046;-73
2022/09/19 01:00:54;;;;;;;23.55;3.00;;;11.30;99.90;;;;;;4941189;28;205854;-73
2022/09/19 01:03:24;;;;;;;16.85;2.30;;;11.40;99.90;;;;;;4982776;28;20062;-72
2022/09/19 01:05:59;;;;;;;20.45;2.47;;;11.40;99.90;;;;;;4924708;28;206953;-73
2022/09/19 01:08:37;;;;;;;20.48;2.20;;;11.40;99.90;;;;;;5003718;28;20050;-72
2022/09/19 01:11:17;;;;;;;23.45;2.75;;;11.40;99.90;;;;;;4940752;28;145611;-73
2022/09/19 01:13:59;;;;;;;19.13;2.35;;;11.40;99.90;;;;;;4979047;28;20427;-72
2022/09/19 01:16:41;;;;;;;16.75;2.33;;;11.40;99.90;;;;;;4922414;28;207205;-73
2022/09/19 01:19:31;;;;;;;26.35;2.83;;;11.40;99.90;;;;;;4934342;28;212931;-73
2022/09/19 01:22:32;;;;;;;20.88;2.50;;;11.40;99.90;;;;;;4982662;28;20489;-72
2022/09/19 01:25:02;;;;;;;24.73;2.58;;;11.40;99.90;;;;;;4942722;28;206212;-73
2022/09/19 01:28:09;;;;;;;21.13;3.10;;;11.40;99.90;;;;;;4974961;28;20058;-73
2022/09/19 01:30:46;;;;;;;23.98;2.70;;;11.40;99.90;;;;;;4931776;28;207561;-71
2022/09/19 01:33:19;;;;;;;23.23;3.15;;;11.40;99.90;;;;;;4977548;28;20066;-72
2022/09/19 01:35:50;;;;;;;22.58;2.72;;;11.40;99.90;;;;;;4924632;28;211568;-71
2022/09/19 01:38:23;;;;;;;25.65;2.90;;;11.50;99.90;;;;;;4978725;28;20058;-71
2022/09/19 01:40:51;;;;;;;21.88;3.35;;;11.40;99.90;;;;;;4928222;28;211192;-72
2022/09/19 01:43:19;;;;;;;20.50;3.13;;;11.50;99.90;;;;;;4982077;28;20500;-72
2022/09/19 01:45:45;;;;;;;23.95;2.85;;;11.50;99.90;;;;;;4949307;28;217440;-72
2022/09/19 01:48:54;;;;;;;20.67;2.58;;;11.50;99.90;;;;;;4984616;28;20058;-72
2022/09/19 01:51:21;;;;;;;18.27;2.38;;;11.50;99.90;;;;;;4883190;29;206421;-73
2022/09/19 01:53:59;;;;;;;25.48;2.58;;;11.50;99.90;;;;;;4941835;28;20047;-73
2022/09/19 01:56:56;;;;;;;21.88;2.30;;;11.50;99.90;;;;;;4886283;28;205955;-73
2022/09/19 01:59:41;;;;;;;23.55;2.58;;;11.50;99.90;;;;;;4864326;29;214608;-73
2022/09/19 02:02:29;;;;;;;24.33;2.95;;;11.50;99.90;;;;;;4923101;29;20540;-71
2022/09/19 02:05:03;;;;;;;22.33;2.58;;;11.50;99.90;;;;;;4878243;29;207961;-72
2022/09/19 02:07:56;;;;;;;21.45;2.75;;;11.60;99.90;;;;;;4925850;29;20058;-70
2022/09/19 02:10:29;;;;;;;19.63;2.30;;;11.60;99.90;;;;;;4875421;29;208184;-71
2022/09/19 02:12:59;;;;;;;21.30;2.53;;;11.60;99.90;;;;;;4909918;29;20917;-70
2022/09/19 02:15:29;;;;;;;21.75;2.92;;;11.60;99.90;;;;;;4851571;29;208612;-71
2022/09/19 02:18:01;;;;;;;19.40;2.95;;;11.70;99.90;;;;;;4924332;29;20159;-71
2022/09/19 02:20:31;;;;;;;25.77;3.17;;;11.70;99.90;;;;;;4872059;29;212792;-71
2022/09/19 02:23:14;;;;;;;24.20;2.97;;;11.70;99.90;;;;;;4923386;29;20056;-72
2022/09/19 02:25:44;;;;;;;24.63;2.70;;;11.70;99.90;;;;;;4880749;29;144026;-72
2022/09/19 02:28:18;;;;;;;25.10;2.70;;;11.70;99.90;;;;;;4915408;29;20055;-72
2022/09/19 02:30:45;;;;;;;20.95;2.78;;;11.70;99.90;;;;;;4860950;29;210767;-72
2022/09/19 02:33:12;;;;;;;19.75;2.70;;;11.60;99.90;;;;;;4911615;29;20421;-72
2022/09/19 02:35:54;;;;;;;23.17;3.53;;;11.60;99.90;;;;;;4861400;28;210702;-72
2022/09/19 02:38:34;;;;;;;20.60;2.72;;;11.60;99.90;;;;;;4959349;28;20051;-72
2022/09/19 02:41:17;;;;;;;19.52;3.17;;;11.60;99.90;;;;;;4928534;28;205741;-71
2022/09/19 02:44:01;;;;;;;28.52;3.40;;;11.60;99.90;;;;;;4980893;28;20055;-70
2022/09/19 02:46:49;;;;;;;24.15;2.83;;;11.60;99.90;;;;;;4922065;28;205082;-72
2022/09/19 02:49:29;;;;;;;24.80;3.17;;;11.60;99.90;;;;;;4949529;28;219039;-71
2022/09/19 02:52:01;;;;;;;22.73;2.70;;;11.60;99.90;;;;;;4962128;28;20101;-71
2022/09/19 02:54:31;;;;;;;21.35;2.38;;;11.60;99.90;;;;;;4934131;28;215794;-73
2022/09/19 02:57:03;;;;;;;20.17;2.40;;;11.60;99.90;;;;;;4970152;28;20521;-71
2022/09/19 02:59:35;;;;;;;18.30;2.78;;;11.70;99.90;;;;;;4932511;28;210464;-72
2022/09/19 03:02:07;;;;;;;20.00;2.30;;;11.60;99.90;;;;;;4977138;28;20065;-72
2022/09/19 03:04:40;;;;;;;19.90;2.22;;;11.60;99.90;;;;;;4938413;28;207272;-71
2022/09/19 03:07:14;;;;;;;17.38;2.03;;;11.60;99.90;;;;;;4983582;28;20062;-71
2022/09/19 03:09:50;;;;;;;17.80;2.30;;;11.60;99.90;;;;;;4941832;28;215839;-72
2022/09/19 03:12:35;;;;;;;20.85;2.42;;;11.50;99.90;;;;;;4988876;28;20527;-71
2022/09/19 03:15:05;;;;;;;18.23;2.25;;;11.50;99.90;;;;;;4934390;28;172832;-72
2022/09/19 03:17:43;;;;;;;17.25;2.10;;;11.50;99.90;;;;;;4990661;28;20054;-72
2022/09/19 03:20:11;;;;;;;16.77;2.00;;;11.50;99.90;;;;;;4959453;28;206905;-72
2022/09/19 03:22:39;;;;;;;16.27;1.92;;;11.50;99.90;;;;;;4977201;28;20077;-73
2022/09/19 03:25:07;;;;;;;20.58;2.08;;;11.50;99.90;;;;;;4947141;28;206777;-72
2022/09/19 03:27:35;;;;;;;16.52;2.38;;;11.50;99.90;;;;;;4974668;28;20054;-72
2022/09/19 03:30:02;;;;;;;21.25;2.63;;;11.50;99.90;;;;;;4944025;28;205983;-72
2022/09/19 03:32:28;;;;;;;17.50;1.90;;;11.50;99.90;;;;;;4961575;28;20062;-72
2022/09/19 03:34:55;;;;;;;22.08;2.25;;;11.40;99.90;;;;;;4942061;28;210318;-72
2022/09/19 03:37:22;;;;;;;16.17;1.95;;;11.40;99.90;;;;;;4997686;28;20046;-71
2022/09/19 03:39:49;;;;;;;17.55;2.03;;;11.40;99.90;;;;;;4951235;28;167339;-71
2022/09/19 03:42:15;;;;;;;17.63;2.03;;;11.40;99.90;;;;;;4992911;28;20072;-72
2022/09/19 03:44:41;;;;;;;15.23;1.85;;;11.30;99.90;;;;;;4946143;28;211901;-72
2022/09/19 03:47:09;;;;;;;15.57;2.17;;;11.30;99.90;;;;;;4992656;28;20423;-72
2022/09/19 03:49:35;;;;;;;19.00;2.67;;;11.30;99.90;;;;;;4936447;28;210823;-72
2022/09/19 03:52:02;;;;;;;18.45;2.30;;;11.30;99.90;;;;;;4970655;28;20409;-72
2022/09/19 03:54:28;;;;;;;19.48;2.33;;;11.30;99.90;;;;;;4918576;28;218010;-72
2022/09/19 03:56:55;;;;;;;24.15;2.70;;;11.30;99.90;;;;;;4954532;28;20050;-72
2022/09/19 03:59:21;;;;;;;18.65;2.30;;;11.30;99.90;;;;;;4917711;28;208873;-72
2022/09/19 04:01:47;;;;;;;21.35;2.63;;;11.30;99.90;;;;;;4959348;28;20058;-72
2022/09/19 04:04:13;;;;;;;15.45;2.20;;;11.40;99.90;;;;;;4919157;28;212776;-72
2022/09/19 04:06:40;;;;;;;18.92;2.75;;;11.40;99.90;;;;;;4963721;28;20042;-73
2022/09/19 04:09:06;;;;;;;21.20;2.88;;;11.40;99.90;;;;;;4915483;28;216589;-73
2022/09/19 04:11:34;;;;;;;19.33;2.33;;;11.50;99.90;;;;;;4977028;28;20054;-72
2022/09/19 04:14:02;;;;;;;21.52;2.58;;;11.50;99.90;;;;;;4927964;28;216141;-71
2022/09/19 04:16:28;;;;;;;22.33;3.03;;;11.50;99.90;;;;;;4965041;28;20415;-72
2022/09/19 04:18:55;;;;;;;24.70;2.60;;;11.50;99.90;;;;;;4965818;28;20051;-73
2022/09/19 04:21:21;;;;;;;19.40;2.53;;;11.40;99.90;;;;;;4910218;28;206405;-73
2022/09/19 04:23:47;;;;;;;31.95;3.38;;;11.50;99.90;;;;;;4986534;28;20065;-73
2022/09/19 04:26:14;;;;;;;21.90;2.58;;;11.50;99.90;;;;;;4954196;28;217408;-72
2022/09/19 04:28:40;;;;;;;22.52;3.10;;;11.50;99.90;;;;;;4982160;28;20058;-73
2022/09/19 04:31:08;;;;;;;21.88;2.42;;;11.50;99.90;;;;;;4946663;28;206626;-72
2022/09/19 04:33:36;;;;;;;21.50;2.70;;;11.60;99.90;;;;;;4991541;28;20042;-75
2022/09/19 04:36:05;;;;;;;22.80;2.80;;;11.50;99.90;;;;;;4955687;28;213381;-72
2022/09/19 04:38:33;;;;;;;19.27;2.80;;;11.60;99.90;;;;;;4980600;28;20065;-74
2022/09/19 04:41:00;;;;;;;21.88;2.67;;;11.50;99.90;;;;;;4953989;28;213237;-72
2022/09/19 04:43:27;;;;;;;22.05;2.92;;;11.50;99.90;;;;;;4980874;28;20050;-73
2022/09/19 04:45:56;;;;;;;26.77;2.50;;;11.50;99.90;;;;;;4944083;28;207905;-72
2022/09/19 04:48:23;;;;;;;18.80;2.40;;;11.50;99.90;;;;;;4985272;28;20038;-72
2022/09/19 04:50:52;;;;;;;21.58;2.65;;;11.50;99.90;;;;;;4923105;28;212477;-72
2022/09/19 04:53:23;;;;;;;23.75;2.70;;;11.50;99.90;;;;;;4954968;28;20082;-72
2022/09/19 04:55:52;;;;;;;23.42;2.40;;;11.50;99.90;;;;;;4920901;28;206241;-72
2022/09/19 04:58:19;;;;;;;25.85;2.55;;;11.40;99.90;;;;;;4965417;28;20046;-72
2022/09/19 05:00:53;;;;;;;20.10;2.55;;;11.40;99.90;;;;;;4916690;28;209516;-73
2022/09/19 05:03:23;;;;;;;21.80;2.50;;;11.40;99.90;;;;;;4973292;28;20051;-71
2022/09/19 05:05:52;;;;;;;21.02;2.60;;;11.40;99.90;;;;;;4920632;28;224431;-72
2022/09/19 05:08:27;;;;;;;27.83;3.13;;;11.50;99.90;;;;;;4970487;28;20054;-73
2022/09/19 05:10:56;;;;;;;22.05;2.67;;;11.50;99.90;;;;;;4900660;28;209044;-72
2022/09/19 05:13:23;;;;;;;18.95;2.75;;;11.50;99.90;;;;;;4968787;28;20062;-73
2022/09/19 05:15:51;;;;;;;23.77;2.47;;;11.50;99.90;;;;;;4914229;28;211666;-72
2022/09/19 05:18:22;;;;;;;22.65;2.78;;;11.50;99.90;;;;;;4968624;28;20064;-72
2022/09/19 05:20:49;;;;;;;;;;;11.60;99.90;;;;;;4921038;28;213329;-72
2022/09/19 05:23:16;;;;;;;17.83;2.28;;;11.50;99.90;;;;;;4960282;28;20293;-72
2022/09/19 05:25:42;;;;;;;20.27;2.60;;;11.50;99.90;;;;;;4919901;28;210457;-73
2022/09/19 05:28:09;;;;;;;21.83;2.67;;;11.50;99.90;;;;;;4964550;28;20058;-72
2022/09/19 05:30:47;;;;;;;17.20;2.28;;;11.50;99.90;;;;;;4916576;28;205414;-72
2022/09/19 05:33:13;;;;;;;22.27;2.80;;;11.50;99.90;;;;;;4962401;28;20059;-72
2022/09/19 05:35:40;;;;;;;22.35;2.75;;;11.50;99.90;;;;;;4930761;28;209370;-72
2022/09/19 05:38:07;;;;;;;22.90;2.97;;;11.40;99.90;;;;;;4961985;28;20058;-73
2022/09/19 05:40:33;;;;;;;24.20;2.80;;;11.40;99.90;;;;;;4925376;28;210372;-73
2022/09/19 05:43:02;;;;;;;20.98;2.92;;;11.40;99.90;;;;;;4961991;28;20050;-73
2022/09/19 05:45:29;;;;;;;21.55;2.80;;;11.30;99.90;;;;;;4928971;28;163328;-72
2022/09/19 05:48:04;;;;;;;28.40;3.08;;;11.30;99.90;;;;;;4957397;28;20500;-72
2022/09/19 05:50:31;;;;;;;23.38;2.88;;;11.30;99.90;;;;;;4929704;28;205736;-72
2022/09/19 05:55:42;;;;;;;23.38;3.22;;;11.30;99.90;;;;;;4924358;28;162076;-73
2022/09/19 05:58:09;;;;;;;25.45;3.20;;;11.40;99.90;;;;;;4965218;28;20455;-73
2022/09/19 06:00:37;;;;;;;30.92;3.25;;;11.40;99.90;;;;;;4932894;28;208484;-73
2022/09/19 06:03:06;;;;;;;19.30;2.65;;;11.50;99.90;;;;;;4975116;28;20057;-74
2022/09/19 06:05:39;;;;;;;21.00;2.88;;;11.50;99.90;;;;;;4937906;28;215054;-74
2022/09/19 06:08:07;;;;;;;22.95;3.03;;;11.50;99.90;;;;;;4967696;28;20043;-70
2022/09/19 06:10:35;;;;;;;23.85;3.15;;;11.50;99.90;;;;;;4935743;28;208322;-73
2022/09/19 06:13:02;;;;;;;16.83;2.38;;;11.60;99.90;;;;;;4970003;28;20527;-73
2022/09/19 06:15:28;;;;;;;22.65;2.80;;;11.60;99.90;;;;;;4925395;28;210454;-72
2022/09/19 06:17:58;;;;;;;22.15;2.83;;;11.60;99.90;;;;;;4967608;28;20050;-73
2022/09/19 06:20:24;;;;;;;22.55;2.58;;;11.60;99.90;;;;;;4910619;28;207141;-72
2022/09/19 06:23:02;;;;;;;22.27;2.90;;;11.60;99.90;;;;;;4960932;28;20123;-72
2022/09/19 06:25:29;;;;;;;20.63;3.28;;;11.60;99.90;;;;;;4922039;28;208424;-73
2022/09/19 06:28:01;;;;;;;22.88;2.88;;;11.70;99.90;;;;;;4960307;28;20054;-72
2022/09/19 06:30:27;;;;;;;20.67;2.70;;;11.70;99.90;;;;;;4918146;28;209853;-73
2022/09/19 06:32:54;;;;;;;18.35;2.53;;;11.70;99.90;;;;;;4964315;28;20058;-72
2022/09/19 06:35:22;;;;;;;26.27;3.05;;;11.60;99.90;;;;;;4937759;28;219283;-73
2022/09/19 06:37:49;;;;;;;19.98;2.45;;;11.60;99.90;;;;;;4974045;28;20047;-73
2022/09/19 06:40:22;;;;;;;19.73;2.78;;;11.60;99.90;;;;;;4927908;28;204486;-73
2022/09/19 06:42:48;;;;;;;19.98;3.03;;;11.70;99.90;;;;;;4968171;28;20050;-73
2022/09/19 06:45:15;;;;;;;17.13;2.35;;;11.80;99.90;;;;;;4928426;28;209746;-72
2022/09/19 06:47:41;;;;;;;25.30;2.53;;;11.70;99.90;;;;;;4968861;28;20047;-72
2022/09/19 06:50:10;;;;;;;20.48;2.42;;;11.80;99.90;;;;;;4925224;28;209207;-72
2022/09/19 06:52:36;;;;;;;19.17;2.80;;;11.80;99.90;;;;;;4968387;28;20059;-72
2022/09/19 06:55:03;;;;;;;18.77;2.33;;;11.70;99.90;;;;;;4922376;28;210063;-72
2022/09/19 06:57:29;;;;;;;22.90;2.65;;;11.80;99.90;;;;;;4966816;28;20054;-72
2022/09/19 06:59:55;;;;;;;23.48;2.50;;;11.80;99.90;;;;;;4931662;28;209919;-72
2022/09/19 07:02:21;;;;;;;20.10;2.53;;;11.80;99.90;;;;;;4980021;28;20058;-72
2022/09/19 07:04:47;;;;;;;18.13;2.45;;;11.80;99.90;;;;;;4939163;28;209315;-72
2022/09/19 07:07:15;;;;;;;18.92;2.10;;;11.90;99.90;;;;;;4979253;28;20066;-72
2022/09/19 07:09:41;;;;;;;22.88;2.50;;;12.00;99.90;;;;;;4928000;28;210064;-72
2022/09/19 07:12:09;;;;;;;19.17;2.17;;;12.10;99.90;;;;;;4976279;28;20058;-72
2022/09/19 07:14:35;;;;;;;23.48;2.65;;;12.20;99.90;;;;;;4926953;28;211158;-72
2022/09/19 07:17:01;;;;;;;16.92;2.22;;;12.30;99.90;;;;;;4982341;28;20050;-72
2022/09/19 07:19:27;;;;;;;18.52;2.35;;;12.40;99.90;;;;;;4927416;28;206630;-72
2022/09/19 07:21:53;;;;;;;18.90;2.13;;;12.50;99.90;;;;;;4971693;28;20042;-72
2022/09/19 07:24:20;;;;;;;24.65;2.67;;;12.50;99.90;;;;;;4924121;28;210930;-71
2022/09/19 07:26:46;;;;;;;21.60;2.55;;;12.40;99.90;;;;;;4952220;28;20058;-71
2022/09/19 07:29:12;;;;;;;15.43;2.00;;;12.70;99.90;;;;;;4927053;28;213292;-71
2022/09/19 07:31:38;;;;;;;16.13;2.30;;;12.60;99.90;;;;;;4968672;28;20054;-71
2022/09/19 07:34:04;;;;;;;14.50;2.00;;;12.60;99.90;;;;;;4913197;28;212284;-71
2022/09/19 07:36:30;;;;;;;15.18;2.20;;;12.60;99.90;;;;;;4986121;28;20500;-71
2022/09/19 07:38:56;;;;;;;18.35;2.25;;;12.60;99.90;;;;;;4956247;28;214555;-70
2022/09/19 07:41:22;;;;;;;13.25;1.90;;;12.60;99.90;;;;;;4952760;28;206409;-71
2022/09/19 07:43:49;;;;;;;17.13;2.55;;;12.70;99.90;;;;;;4962134;28;20051;-75
2022/09/19 07:46:17;;;;;;;16.67;2.70;;;12.70;99.90;;;;;;4937027;28;209421;-75
2022/09/19 07:48:46;;;;;;;18.23;2.50;;;12.80;99.90;;;;;;4970677;28;20069;-75
2022/09/19 07:51:12;;;;;;;18.75;2.78;;;12.70;99.90;;;;;;4938706;28;218892;-71
2022/09/19 07:53:38;;;;;;;18.77;2.25;;;12.80;99.90;;;;;;4968131;28;20417;-71
2022/09/19 07:56:05;;;;;;;19.85;2.70;;;12.90;99.90;;;;;;4933246;28;207962;-70
2022/09/19 07:58:31;;;;;;;20.55;2.47;;;13.40;99.90;;;;;;4964685;28;20058;-71
2022/09/19 08:01:01;;;;;;;17.27;2.78;;;14.00;99.90;;;;;;4913160;28;206865;-70
2022/09/19 08:03:27;;;;;;;16.25;2.80;;;14.30;99.90;;;;;;4967053;28;20062;-72
2022/09/19 08:05:53;;;;;;;24.67;3.17;;;14.40;99.90;;;;;;4918419;28;212002;-72
2022/09/19 08:08:22;;;;;;;17.60;2.40;;;14.60;99.90;;;;;;4967128;28;20039;-71
2022/09/19 08:10:49;;;;;;;20.55;2.55;;;15.00;99.90;;;;;;4914729;28;206380;-71
2022/09/19 08:13:17;;;;;;;15.25;2.40;;;15.10;99.90;;;;;;4963821;28;20094;-70
2022/09/19 08:15:45;;;;;;;19.05;2.55;;;15.30;99.90;;;;;;4924990;28;208146;-71
2022/09/19 08:18:19;;;;;;;16.10;2.15;;;15.50;99.90;;;;;;4968802;28;20054;-70
2022/09/19 08:20:46;;;;;;;16.60;2.53;;;15.90;99.90;;;;;;4915446;28;215253;-69
2022/09/19 08:23:16;;;;;;;20.00;2.60;;;15.90;99.90;;;;;;4970289;28;20065;-70
2022/09/19 08:25:46;;;;;;;18.55;2.55;;;15.40;99.90;;;;;;4914198;28;205359;-70
2022/09/19 08:28:22;;;;;;;17.80;2.53;;;15.10;99.90;;;;;;4967889;28;20055;-71
2022/09/19 08:30:48;;;;;;;16.83;2.17;;;14.90;99.90;;;;;;4937979;28;209657;-71
2022/09/19 08:33:15;;;;;;;19.08;2.85;;;14.80;99.90;;;;;;4960476;28;20047;-71
2022/09/19 08:35:42;;;;;;;18.70;2.25;;;15.40;99.90;;;;;;4928702;28;206238;-70
2022/09/19 08:38:10;;;;;;;17.70;2.63;;;15.90;99.90;;;;;;4963709;28;20043;-71
2022/09/19 08:40:39;;;;;;;18.80;2.47;;;16.20;99.90;;;;;;4935544;28;209486;-71
2022/09/19 08:43:16;;;;;;;19.80;2.45;;;16.60;99.90;;;;;;4962510;28;20047;-71
2022/09/19 08:46:01;;;;;;;17.23;2.70;;;16.90;99.90;;;;;;4939183;28;210023;-70
2022/09/19 08:49:00;;;;;;;16.23;2.65;;;17.20;99.90;;;;;;4964566;28;20062;-71
2022/09/19 08:51:59;;;;;;;19.20;2.38;;;17.50;99.90;;;;;;4946511;28;182199;-69
2022/09/19 08:54:38;;;;;;;18.23;2.38;;;17.50;99.90;;;;;;4927991;28;210002;-69
2022/09/19 08:57:13;;;;;;;17.20;1.98;;;17.50;99.90;;;;;;4964403;28;20062;-69
2022/09/19 08:59:40;;;;;;;16.13;2.85;;;17.90;99.90;;;;;;4929639;28;205964;-70
2022/09/19 09:02:44;;;;;;;17.20;2.25;;;17.90;99.90;;;;;;4962916;28;20066;-70
2022/09/19 09:05:17;;;;;;;16.35;2.30;;;18.30;99.90;;;;;;4896988;28;214056;-69
2022/09/19 09:08:04;;;;;;;16.73;2.50;;;18.30;99.90;;;;;;4957711;28;20078;-70
2022/09/19 09:10:42;;;;;;;16.08;2.60;;;18.10;99.90;;;;;;4914333;28;206269;-70
2022/09/19 09:13:38;;;;;;;15.18;2.22;;;18.10;99.90;;;;;;4940996;28;20062;-70
2022/09/19 09:16:22;;;;;;;17.05;2.20;;;18.20;99.90;;;;;;4901366;28;206763;-70
2022/09/19 09:19:22;;;;;;;13.73;2.42;;;18.00;99.90;;;;;;4950133;28;20214;-70
2022/09/19 09:22:16;;;;;;;15.93;2.80;;;17.80;99.90;;;;;;4913311;28;209733;-75
2022/09/19 09:24:47;;;;;;;14.65;2.35;;;16.70;99.90;;;;;;4908977;28;218104;-75
2022/09/19 09:27:20;;;;;;;17.63;2.70;;;15.80;99.90;;;;;;4956549;28;20476;-74
2022/09/19 09:29:53;;;;;;;17.92;2.70;;;15.20;99.90;;;;;;4919792;28;203634;-74
2022/09/19 09:32:32;;;;;;;20.02;2.60;;;14.90;99.90;;;;;;4989971;28;20050;-74
2022/09/19 09:35:26;;;;;;;17.70;2.75;;;14.70;99.90;;;;;;4958287;28;220101;-76
2022/09/19 09:38:26;;;;;;;13.90;2.22;;;14.60;99.90;;;;;;4969245;28;20082;-73
2022/09/19 09:44:16;;;;;;;17.15;2.42;;;15.40;99.90;;;;;;4949868;28;20062;-72
2022/09/19 09:46:53;;;;;;;18.35;2.25;;;16.10;99.90;;;;;;4914821;28;206312;-72
2022/09/19 09:49:27;;;;;;;19.35;3.00;;;16.80;99.90;;;;;;4909919;28;215638;-72
2022/09/19 09:52:03;;;;;;;14.30;2.35;;;17.20;99.90;;;;;;4948691;28;20423;-71
2022/09/19 09:57:59;;;;;;;13.52;1.80;;;17.00;99.90;;;;;;4952087;28;20539;-73
2022/09/19 10:03:34;;;;;;;11.52;1.90;;;15.70;99.90;;;;;;4954877;28;20053;-73
2022/09/19 10:06:12;;;;;;;14.67;2.17;;;15.20;99.90;;;;;;4857328;29;210667;-73
2022/09/19 10:08:59;;;;;;;11.57;1.73;;;14.80;99.90;;;;;;4930501;28;20059;-74
2022/09/19 10:11:39;;;;;;;15.35;2.15;;;14.60;99.90;;;;;;4900537;28;204314;-73
2022/09/19 10:14:12;;;;;;;14.18;2.20;;;14.90;99.90;;;;;;4881575;28;205787;-71
2022/09/19 10:16:38;;;;;;;19.38;2.38;;;15.10;99.90;;;;;;4923769;28;20167;-71
2022/09/19 10:19:33;;;;;;;12.70;2.25;;;15.20;99.90;;;;;;4950260;28;208363;-71
2022/09/19 10:22:02;;;;;;;15.18;2.03;;;15.20;99.90;;;;;;4973236;28;20550;-71
2022/09/19 10:24:45;;;;;;;11.98;1.55;;;15.40;99.90;;;;;;4948913;28;207044;-70
2022/09/19 10:27:16;;;;;;;10.20;1.33;;;15.60;99.90;;;;;;4977803;28;20046;-71
2022/09/19 10:29:52;;;;;;;8.68;1.10;;;15.50;99.90;;;;;;4949113;28;206894;-70
2022/09/19 10:32:24;;;;;;;10.85;1.20;;;15.50;99.90;;;;;;4990049;28;20100;-69
2022/09/19 10:34:51;;;;;;;10.57;1.33;;;15.70;99.90;;;;;;4948107;28;209549;-70
2022/09/19 10:37:21;;;;;;;11.27;1.20;;;16.20;99.90;;;;;;4997910;28;20039;-71
2022/09/19 10:39:48;;;;;;;8.00;1.20;;;17.00;99.90;;;;;;4951298;28;209775;-70
2022/09/19 10:42:23;;;;;;;13.40;1.80;;;17.90;99.90;;;;;;4994951;28;20045;-71
2022/09/19 10:44:54;;;;;;;9.63;1.52;;;18.80;99.90;;;;;;4958675;28;209060;-69
2022/09/19 10:47:20;;;;;;;14.13;2.42;;;19.60;99.90;;;;;;4999637;28;20043;-69
2022/09/19 10:49:48;;;;;;;13.93;2.17;;;20.00;99.90;;;;;;4947360;28;209565;-70
2022/09/19 10:52:24;;;;;;;14.93;2.25;;;20.30;99.90;;;;;;4985190;28;20050;-70
2022/09/19 10:54:53;;;;;;;16.00;2.40;;;20.30;99.90;;;;;;4935737;28;206934;-70
2022/09/19 10:57:40;;;;;;;13.32;2.25;;;20.40;99.90;;;;;;4977722;28;20069;-70
2022/09/19 11:00:24;;;;;;;13.48;2.30;;;20.60;99.90;;;;;;4944784;28;213165;-69
2022/09/19 11:03:15;;;;;;;17.17;2.45;;;21.30;99.90;;;;;;4994535;28;20058;-69
2022/09/19 11:05:41;;;;;;;14.68;2.75;;;21.40;99.90;;;;;;4954972;28;209701;-70
2022/09/19 11:08:26;;;;;;;19.15;2.85;;;21.00;99.90;;;;;;4993308;28;20054;-69
2022/09/19 11:10:52;;;;;;;16.33;2.72;;;21.30;99.30;;;;;;4955448;28;213810;-70
2022/09/19 11:13:22;;;;;;;12.68;2.42;;;21.20;99.90;;;;;;4985781;28;20050;-69
2022/09/19 11:15:58;;;;;;;13.90;2.38;;;21.70;99.90;;;;;;4925300;28;209501;-70
2022/09/19 11:18:43;;;;;;;14.13;2.33;;;22.20;99.90;;;;;;4990064;28;20058;-70
2022/09/19 11:21:17;;;;;;;14.88;2.42;;;22.20;99.90;;;;;;4946050;28;210926;-70
2022/09/19 11:23:56;;;;;;;17.23;2.60;;;21.50;99.90;;;;;;4991342;28;20057;-71
2022/09/19 11:26:33;;;;;;;15.90;3.03;;;20.70;99.90;;;;;;4932286;28;204570;-74
2022/09/19 11:29:04;;;;;;;14.80;2.10;;;19.60;99.90;;;;;;4959985;28;209704;-73
2022/09/19 11:31:42;;;;;;;16.92;2.40;;;18.60;99.90;;;;;;4972630;28;208273;-73
2022/09/19 11:34:49;;;;;;;14.85;2.47;;;17.90;99.90;;;;;;4941488;28;210277;-72
2022/09/19 11:37:43;;;;;;;15.43;2.40;;;17.60;99.90;;;;;;4936914;29;20436;-72
2022/09/19 11:40:33;;;;;;;16.50;2.67;;;17.50;99.90;;;;;;4877819;29;206470;-71
2022/09/19 11:43:14;;;;;;;15.68;2.72;;;18.20;99.90;;;;;;4934606;29;20073;-71
2022/09/19 11:46:29;;;;;;;13.63;2.38;;;19.50;99.90;;;;;;4888080;28;210239;-70
2022/09/19 11:49:13;;;;;;;14.82;2.25;;;19.80;99.90;;;;;;4902831;29;20052;-71
2022/09/19 11:52:25;;;;;;;15.90;2.40;;;19.10;99.90;;;;;;4859352;29;155917;-70
2022/09/19 11:55:36;;;;;;;13.70;2.33;;;18.40;99.90;;;;;;4858499;29;206624;-70
2022/09/19 11:58:18;;;;;;;15.13;2.42;;;18.60;99.90;;;;;;4841857;29;20058;-70
2022/09/19 12:01:05;;;;;;;14.90;2.63;;;18.20;99.90;;;;;;4809952;29;30111;-70
2022/09/19 12:04:06;;;;;;;20.02;2.50;;;17.80;99.90;;;;;;4842115;29;20077;-70
2022/09/19 12:07:05;;;;;;;17.02;2.63;;;17.40;99.90;;;;;;4805569;29;206655;-69
2022/09/19 12:10:00;;;;;;;15.32;2.17;;;16.90;99.90;;;;;;4791341;29;206614;-69
2022/09/19 12:12:31;;;;;;;16.63;2.80;;;16.70;99.90;;;;;;4840174;29;20093;-69
2022/09/19 12:15:22;;;;;;;14.48;2.33;;;16.70;99.90;;;;;;4833345;29;206540;-69
2022/09/19 12:17:55;;;;;;;16.17;2.47;;;16.70;99.90;;;;;;4871125;29;20085;-69
2022/09/19 12:20:37;;;;;;;15.40;2.33;;;16.70;99.90;;;;;;4835417;29;205814;-69
2022/09/19 12:26:06;;;;;;;17.65;2.33;;;18.50;99.90;;;;;;4898317;29;97352;-70
2022/09/19 12:28:40;;;;;;;14.18;2.47;;;19.10;99.90;;;;;;4929773;29;20199;-70
2022/09/19 12:31:11;;;;;;;16.38;2.35;;;19.70;99.90;;;;;;4870845;29;209830;-69
2022/09/19 12:34:11;;;;;;;14.77;2.40;;;19.90;99.90;;;;;;4939248;28;20070;-68
2022/09/19 12:36:50;;;;;;;17.02;2.78;;;19.10;99.90;;;;;;4943310;28;212167;-70
2022/09/19 12:39:26;;;;;;;17.45;2.60;;;19.40;99.90;;;;;;4940913;28;209647;-68
2022/09/19 12:42:14;;;;;;;12.30;2.38;;;20.00;99.90;;;;;;4996904;28;20057;-68
2022/09/19 12:45:05;;;;;;;12.95;2.05;;;20.10;98.00;;;;;;4944382;28;210653;-70
2022/09/19 12:48:00;;;;;;;12.75;2.58;;;20.20;96.60;;;;;;4991384;28;20712;-69
2022/09/19 12:50:36;;;;;;;12.95;2.13;;;20.60;97.60;;;;;;4953424;28;209840;-69
2022/09/19 12:53:29;;;;;;;16.38;2.13;;;20.50;97.60;;;;;;4988968;28;20061;-70
2022/09/19 12:56:15;;;;;;;14.30;2.40;;;20.30;99.90;;;;;;4905391;28;215759;-71
2022/09/19 12:59:15;;;;;;;12.55;1.83;;;19.90;98.70;;;;;;4954408;28;20056;-70
2022/09/19 13:01:55;;;;;;;13.93;1.80;;;19.30;96.20;;;;;;4910271;28;207181;-69
2022/09/19 13:04:30;;;;;;;19.45;2.92;;;18.70;99.90;;;;;;4887538;29;209507;-67
2022/09/19 13:07:13;;;;;;;15.30;2.40;;;18.40;97.20;;;;;;4930554;28;20051;-68
2022/09/19 13:10:05;;;;;;;15.02;2.60;;;18.10;99.90;;;;;;4903947;28;209901;-69
2022/09/19 13:13:03;;;;;;;18.10;2.17;;;17.70;98.70;;;;;;4957543;28;20046;-69
2022/09/19 13:15:34;;;;;;;16.73;2.30;;;17.20;98.60;;;;;;4905243;28;206269;-69
2022/09/19 13:23:35;;;;;;;18.73;2.78;;;15.80;99.90;;;;;;4943374;28;20070;-68
2022/09/19 13:26:16;;;;;;;18.55;2.47;;;15.50;99.90;;;;;;4903828;28;210516;-68
2022/09/19 13:29:03;;;;;;;15.80;2.20;;;15.20;99.90;;;;;;4949724;28;20035;-69
2022/09/19 13:31:39;;;;;;;17.20;2.67;;;15.10;99.90;;;;;;4889321;29;207838;-69